Palmer Municipal Airport Palmer US
ICAO: PAAQ
IATA:
Category: Medium
Scheduled Services:

Elevation: 242 ft
TransAlt. 18000 ft.

Airport Communications:
ANCHORAGE CNTR:118.6
ASOS:134.75
CTAF:123.6
RDO:123.6
KENAI RDO:123.6

PAAQ Zoom In..

If Map Doesn't Load, Click Here

Runways:

(A) RW 09 length 3617 ft width 75 ft
---- / hdg 93

(B) RW 16 length 6009 ft width 100 ft
---- / hdg 160

(C) RW 27 length 3617 ft width 75 ft
---- / hdg 273

(D) RW 34 length 6009 ft width 100 ft
---- / hdg 340

Location; PAAQ
Day. 23 / Time. 20.53 Zulu
* Altimeter: 29.81
* Temperature: 12° c. 53.6°f.
* Wind from: 140° Speed 05 kn.
Dewpoint: 06° c.
Visibility: 10 Statute Miles.
Clouds: Clear (automated report).

PAAQ 232053Z 14005KT 10SM CLR 12/06 A2981 RMK AO2 SLP098 T01170061 50007


Wind From 140°
Speed 05 kn.

 
 
jpsmedia.com for Web Design worldairports.se 2018   terms of use